createdAt,value
2022-12-16T00:01:45.784Z,121.15
2022-12-16T00:04:13.176Z,125.50
2022-12-16T00:06:40.051Z,121.57
2022-12-16T00:09:06.976Z,126.85
2022-12-16T00:11:34.063Z,125.07
2022-12-16T00:14:01.829Z,127.07
2022-12-16T00:16:29.225Z,131.18
2022-12-16T00:18:56.351Z,131.73
2022-12-16T00:21:28.829Z,127.38
2022-12-16T00:23:57.559Z,130.98
2022-12-16T00:26:24.916Z,132.48
2022-12-16T00:28:51.862Z,129.07
2022-12-16T00:31:19.299Z,130.18
2022-12-16T00:33:46.400Z,126.65
2022-12-16T00:36:13.662Z,125.13
2022-12-16T00:38:40.715Z,130.88
2022-12-16T00:41:08.236Z,124.15
2022-12-16T00:43:35.534Z,130.35
2022-12-16T00:46:03.044Z,125.45
2022-12-16T00:48:31.727Z,123.70
2022-12-16T00:50:58.650Z,124.55
2022-12-16T00:53:25.615Z,125.68
2022-12-16T00:56:01.538Z,127.40
2022-12-16T00:58:28.757Z,132.10
2022-12-16T01:00:55.829Z,129.55
2022-12-16T01:03:22.986Z,133.07
2022-12-16T01:05:50.068Z,128.35
2022-12-16T01:08:17.822Z,124.53
2022-12-16T01:10:51.649Z,121.82
2022-12-16T01:13:20.064Z,120.55
2022-12-16T01:15:47.372Z,118.90
2022-12-16T01:18:15.335Z,123.20
2022-12-16T01:20:42.395Z,126.70
2022-12-16T01:23:09.837Z,124.85
2022-12-16T01:25:36.996Z,125.55
2022-12-16T01:28:04.241Z,123.35
2022-12-16T01:30:31.552Z,122.38
2022-12-16T01:32:58.414Z,130.63
2022-12-16T01:38:13.350Z,122.15
2022-12-16T01:40:40.406Z,117.53
2022-12-16T01:43:13.969Z,118.70
2022-12-16T01:45:41.251Z,117.13
2022-12-16T01:48:19.180Z,117.25
2022-12-16T01:50:46.712Z,114.22
2022-12-16T01:53:14.266Z,115.70
2022-12-16T01:55:48.996Z,117.28
2022-12-16T01:58:23.945Z,121.68
2022-12-16T02:00:51.376Z,119.70
2022-12-16T02:03:18.969Z,118.00
2022-12-16T02:05:48.235Z,119.90
2022-12-16T02:08:16.234Z,118.30
2022-12-16T02:10:43.060Z,110.57
2022-12-16T02:13:26.562Z,108.40
2022-12-16T02:16:40.978Z,104.40
2022-12-16T02:19:41.466Z,108.05
2022-12-16T02:22:36.054Z,103.13
2022-12-16T02:25:09.129Z,106.57
2022-12-16T02:28:11.900Z,106.00
2022-12-16T02:30:55.797Z,102.28
2022-12-16T02:33:37.818Z,99.60
2022-12-16T02:36:08.090Z,101.07
2022-12-16T02:39:07.403Z,98.25
2022-12-16T02:41:53.289Z,99.75
2022-12-16T02:44:48.430Z,98.82
2022-12-16T02:47:15.864Z,96.18
2022-12-16T02:49:49.038Z,98.05
2022-12-16T02:52:19.918Z,88.93
2022-12-16T02:54:49.008Z,86.28
2022-12-16T02:57:28.294Z,80.97
2022-12-16T03:00:06.079Z,79.45
2022-12-16T03:02:36.538Z,80.93
2022-12-16T03:05:10.773Z,75.32
2022-12-16T03:07:41.466Z,74.38
2022-12-16T03:10:12.553Z,70.10
2022-12-16T03:12:43.697Z,70.28
2022-12-16T03:15:14.031Z,65.65
2022-12-16T03:17:42.309Z,64.03
2022-12-16T03:20:18.367Z,63.33
2022-12-16T03:22:48.540Z,60.47
2022-12-16T03:25:16.537Z,59.40
2022-12-16T03:27:57.684Z,60.30
2022-12-16T03:30:33.341Z,57.70
2022-12-16T03:33:05.383Z,66.50
2022-12-16T03:35:35.445Z,73.22
2022-12-16T03:38:06.534Z,72.70
2022-12-16T03:40:34.804Z,80.88
2022-12-16T03:43:03.416Z,81.72
2022-12-16T03:45:39.245Z,81.15
2022-12-16T03:48:11.632Z,80.25
2022-12-16T03:50:39.752Z,78.78
2022-12-16T03:53:07.717Z,79.03
2022-12-16T03:55:35.557Z,75.38
2022-12-16T03:58:02.648Z,72.57
2022-12-16T04:00:30.017Z,70.53
2022-12-16T04:02:57.573Z,71.32
2022-12-16T04:05:26.693Z,71.40
2022-12-16T04:08:00.238Z,72.07
2022-12-16T04:10:48.002Z,74.50
2022-12-16T04:13:34.097Z,70.60
2022-12-16T04:16:19.948Z,69.60
2022-12-16T04:19:06.720Z,69.35
2022-12-16T04:21:52.857Z,67.72
2022-12-16T04:24:24.673Z,66.70
2022-12-16T04:27:15.326Z,68.40
2022-12-16T04:30:02.427Z,64.72
2022-12-16T04:32:51.661Z,63.35
2022-12-16T04:35:37.242Z,57.92
2022-12-16T04:38:23.946Z,55.95
2022-12-16T04:41:09.653Z,52.38
2022-12-16T04:43:55.615Z,47.70
2022-12-16T04:46:41.505Z,50.20
2022-12-16T04:49:27.448Z,49.33
2022-12-16T04:52:13.081Z,44.55
2022-12-16T04:54:58.885Z,44.15
2022-12-16T04:57:44.792Z,42.53
2022-12-16T05:00:31.384Z,39.60
2022-12-16T05:03:17.027Z,42.50
2022-12-16T05:06:02.520Z,41.40
2022-12-16T05:08:48.458Z,40.33
2022-12-16T05:11:34.017Z,37.65
2022-12-16T05:14:19.496Z,42.13
2022-12-16T05:17:05.120Z,41.75
2022-12-16T05:19:50.859Z,44.55
2022-12-16T05:22:36.486Z,42.08
2022-12-16T05:25:23.127Z,42.70
2022-12-16T05:28:10.189Z,44.08
2022-12-16T05:30:56.400Z,43.05
2022-12-16T05:33:43.179Z,45.85
2022-12-16T05:36:28.713Z,46.05
2022-12-16T05:39:14.373Z,44.63
2022-12-16T05:41:59.746Z,43.50
2022-12-16T05:44:45.453Z,44.65
2022-12-16T05:47:31.212Z,43.97
2022-12-16T05:50:16.803Z,41.67
2022-12-16T05:53:13.893Z,41.25
2022-12-16T05:56:01.664Z,37.97
2022-12-16T05:58:48.189Z,40.83
2022-12-16T06:01:34.180Z,38.33
2022-12-16T06:04:19.841Z,38.20
2022-12-16T06:07:06.076Z,31.83
2022-12-16T06:09:56.636Z,38.75
2022-12-16T06:12:43.106Z,38.50
2022-12-16T06:15:29.870Z,42.90
2022-12-16T06:18:15.617Z,46.13
2022-12-16T06:21:02.156Z,38.63
2022-12-16T06:23:47.783Z,36.40
2022-12-16T06:26:33.555Z,36.22
2022-12-16T06:29:19.102Z,35.85
2022-12-16T06:32:05.031Z,38.13
2022-12-16T06:34:50.977Z,47.95
2022-12-16T06:37:36.584Z,41.13
2022-12-16T06:40:22.777Z,36.53
2022-12-16T06:43:08.364Z,38.65
2022-12-16T06:45:54.341Z,36.25
2022-12-16T06:48:39.687Z,36.95
2022-12-16T06:51:25.438Z,34.95
2022-12-16T06:54:11.467Z,35.47
2022-12-16T06:56:58.245Z,36.00
2022-12-16T06:59:43.916Z,34.88
2022-12-16T07:02:30.148Z,37.40
2022-12-16T07:05:15.806Z,38.83
2022-12-16T07:08:09.486Z,39.53
2022-12-16T07:11:00.343Z,52.05
2022-12-16T07:13:55.886Z,40.90
2022-12-16T07:16:41.700Z,44.25
2022-12-16T07:19:27.463Z,43.30
2022-12-16T07:22:13.163Z,44.90
2022-12-16T07:24:58.851Z,43.95
2022-12-16T07:27:44.739Z,42.72
2022-12-16T07:30:30.891Z,44.92
2022-12-16T07:33:16.650Z,47.03
2022-12-16T07:36:02.318Z,39.35
2022-12-16T07:38:48.109Z,46.45
2022-12-16T07:41:33.982Z,43.42
2022-12-16T07:44:23.195Z,43.65
2022-12-16T07:47:08.956Z,43.58
2022-12-16T07:49:55.435Z,39.75
2022-12-16T07:52:41.907Z,40.15
2022-12-16T07:55:28.060Z,41.25
2022-12-16T07:58:13.811Z,54.35
2022-12-16T08:01:06.287Z,42.88
2022-12-16T08:03:54.660Z,45.38
2022-12-16T08:06:42.255Z,41.70
2022-12-16T08:09:28.024Z,42.22
2022-12-16T08:12:18.376Z,43.83
2022-12-16T08:15:03.771Z,42.72
2022-12-16T08:17:49.376Z,53.40
2022-12-16T08:20:34.937Z,46.00
2022-12-16T08:23:20.942Z,42.20
2022-12-16T08:26:06.580Z,41.40
2022-12-16T08:28:52.678Z,39.72
2022-12-16T08:31:38.389Z,41.05
2022-12-16T08:34:24.437Z,38.33
2022-12-16T08:37:09.978Z,38.47
2022-12-16T08:40:18.043Z,38.33
2022-12-16T08:43:01.490Z,37.50
2022-12-16T08:45:47.350Z,37.97
2022-12-16T08:48:33.211Z,36.90
2022-12-16T08:51:26.390Z,37.88
2022-12-16T08:54:12.040Z,40.03
2022-12-16T08:56:57.843Z,41.10
2022-12-16T08:59:44.567Z,41.08
2022-12-16T09:02:31.281Z,43.17
2022-12-16T09:05:17.130Z,43.20
2022-12-16T09:08:02.895Z,41.33
2022-12-16T09:10:48.543Z,39.20
2022-12-16T09:13:35.298Z,37.33
2022-12-16T09:16:21.793Z,37.40
2022-12-16T09:19:07.397Z,38.55
2022-12-16T09:21:54.828Z,37.42
2022-12-16T09:24:40.827Z,37.45
2022-12-16T09:27:26.259Z,38.50
2022-12-16T09:30:11.815Z,36.95
2022-12-16T09:33:02.531Z,37.47
2022-12-16T09:35:48.582Z,38.97
2022-12-16T09:38:35.981Z,37.33
2022-12-16T09:41:46.725Z,36.97
2022-12-16T09:44:49.248Z,35.92
2022-12-16T09:47:41.231Z,35.40
2022-12-16T09:50:38.329Z,35.20
2022-12-16T09:53:28.392Z,33.90
2022-12-16T09:56:15.450Z,32.42
2022-12-16T09:59:18.543Z,35.10
2022-12-16T10:02:04.748Z,34.70
2022-12-16T10:04:51.051Z,34.75
2022-12-16T10:07:42.135Z,33.22
2022-12-16T10:10:36.403Z,34.70
2022-12-16T10:13:49.699Z,39.03
2022-12-16T10:16:38.519Z,44.08
2022-12-16T10:19:36.043Z,44.25
2022-12-16T10:22:46.531Z,47.47
2022-12-16T10:25:35.361Z,44.88
2022-12-16T10:28:37.487Z,46.08
2022-12-16T10:31:32.250Z,43.97
2022-12-16T10:34:17.767Z,42.75
2022-12-16T10:37:11.681Z,43.75
2022-12-16T10:40:07.850Z,44.67
2022-12-16T10:43:00.366Z,42.75
2022-12-16T10:45:53.744Z,48.97
2022-12-16T10:48:56.735Z,48.60
2022-12-16T10:51:47.049Z,48.22
2022-12-16T10:54:38.744Z,45.42
2022-12-16T10:57:33.783Z,40.97
2022-12-16T11:00:32.856Z,40.70
2022-12-16T11:03:42.797Z,38.53
2022-12-16T11:06:29.671Z,41.25
2022-12-16T11:09:15.340Z,42.30
2022-12-16T11:12:01.452Z,43.78
2022-12-16T11:15:12.708Z,44.38
2022-12-16T11:17:56.071Z,44.80
2022-12-16T11:20:44.259Z,43.65
2022-12-16T11:23:45.160Z,40.75
2022-12-16T11:26:38.448Z,39.80
2022-12-16T11:29:25.620Z,40.40
2022-12-16T11:32:42.661Z,37.40
2022-12-16T11:35:37.739Z,37.08
2022-12-16T11:38:29.684Z,37.35
2022-12-16T11:41:16.847Z,35.03
2022-12-16T11:44:05.992Z,33.60
2022-12-16T11:46:51.920Z,33.72
2022-12-16T11:49:51.967Z,34.13
2022-12-16T11:52:40.569Z,32.85
2022-12-16T11:59:01.270Z,32.17
2022-12-16T12:02:05.963Z,33.88
2022-12-16T12:04:51.452Z,32.13
2022-12-16T12:07:45.809Z,32.25
2022-12-16T12:10:38.174Z,30.63
2022-12-16T12:13:58.877Z,28.77
2022-12-16T12:16:59.313Z,29.85
2022-12-16T12:20:06.390Z,30.05
2022-12-16T12:22:57.514Z,29.10
2022-12-16T12:26:02.244Z,27.33
2022-12-16T12:28:54.269Z,28.52
2022-12-16T12:32:14.940Z,29.10
2022-12-16T12:35:19.850Z,29.23
2022-12-16T12:38:11.028Z,28.48
2022-12-16T12:41:03.829Z,28.83
2022-12-16T12:44:07.164Z,27.48
2022-12-16T12:47:16.653Z,28.40
2022-12-16T12:50:14.136Z,28.75
2022-12-16T12:53:43.061Z,26.50
2022-12-16T12:57:16.158Z,26.83
2022-12-16T13:00:37.181Z,26.85
2022-12-16T13:03:55.973Z,26.98
2022-12-16T13:06:42.699Z,29.27
2022-12-16T13:09:48.297Z,28.38
2022-12-16T13:12:34.282Z,27.05
2022-12-16T13:15:25.639Z,27.08
2022-12-16T13:18:20.460Z,28.13
2022-12-16T13:21:06.571Z,27.48
2022-12-16T13:23:57.780Z,27.98
2022-12-16T13:26:45.994Z,27.10
2022-12-16T13:29:46.895Z,27.50
2022-12-16T13:32:38.521Z,27.77
2022-12-16T13:35:27.122Z,26.60
2022-12-16T13:38:14.377Z,26.75
2022-12-16T13:41:17.197Z,28.05
2022-12-16T13:44:21.790Z,27.30
2022-12-16T13:47:13.350Z,27.88
2022-12-16T13:50:05.741Z,27.70
2022-12-16T13:53:07.351Z,26.63
2022-12-16T13:56:05.121Z,25.67
2022-12-16T13:59:12.987Z,26.60
2022-12-16T14:02:31.274Z,27.83
2022-12-16T14:05:17.575Z,28.15
2022-12-16T14:08:03.907Z,27.67
2022-12-16T14:10:53.300Z,26.92
2022-12-16T14:17:02.642Z,26.92
2022-12-16T14:19:53.625Z,28.23
2022-12-16T14:22:54.811Z,27.20
2022-12-16T14:25:42.138Z,27.13
2022-12-16T14:28:55.017Z,28.08
2022-12-16T14:31:49.130Z,28.15
2022-12-16T14:35:04.619Z,27.35
2022-12-16T14:37:55.947Z,29.00
2022-12-16T14:40:43.241Z,29.02
2022-12-16T14:43:35.524Z,28.70
2022-12-16T14:46:22.212Z,28.50
2022-12-16T14:49:09.570Z,28.13
2022-12-16T14:52:06.400Z,30.42
2022-12-16T14:54:57.990Z,28.33
2022-12-16T14:57:46.117Z,27.48
2022-12-16T15:00:42.471Z,27.60
2022-12-16T15:03:48.355Z,28.77
2022-12-16T15:07:02.043Z,25.95
2022-12-16T15:09:55.893Z,27.77
2022-12-16T15:12:48.187Z,25.92
2022-12-16T15:15:49.743Z,26.25
2022-12-16T15:18:40.554Z,26.38
2022-12-16T15:21:27.170Z,25.67
2022-12-16T15:24:13.265Z,25.13
2022-12-16T15:26:59.341Z,23.08
2022-12-16T15:29:53.309Z,25.00
2022-12-16T15:32:44.684Z,23.73
2022-12-16T15:35:50.030Z,24.55
2022-12-16T15:38:54.310Z,22.23
2022-12-16T15:41:50.133Z,20.88
2022-12-16T15:44:41.734Z,24.13
2022-12-16T15:47:53.230Z,22.23
2022-12-16T15:50:47.129Z,24.35
2022-12-16T15:53:55.179Z,23.63
2022-12-16T15:56:46.480Z,22.17
2022-12-16T15:59:50.342Z,22.83
2022-12-16T16:02:41.316Z,22.08
2022-12-16T16:05:39.719Z,23.35
2022-12-16T16:08:25.833Z,22.02
2022-12-16T16:11:11.732Z,24.15
2022-12-16T16:14:02.924Z,22.63
2022-12-16T16:16:51.880Z,22.25
2022-12-16T16:19:43.104Z,23.50
2022-12-16T16:22:34.203Z,22.98
2022-12-16T16:25:20.399Z,25.95
2022-12-16T16:28:06.246Z,31.52
2022-12-16T16:30:51.894Z,28.13
2022-12-16T16:33:37.791Z,25.05
2022-12-16T16:36:34.356Z,26.25
2022-12-16T16:39:20.398Z,27.45
2022-12-16T16:42:06.069Z,28.83
2022-12-16T16:44:51.641Z,26.80
2022-12-16T16:47:37.920Z,25.42
2022-12-16T16:50:25.503Z,34.85
2022-12-16T16:53:11.676Z,32.28
2022-12-16T16:55:57.983Z,27.75
2022-12-16T16:58:50.286Z,29.00
2022-12-16T17:01:37.350Z,23.95
2022-12-16T17:04:23.405Z,21.33
2022-12-16T17:07:09.039Z,22.10
2022-12-16T17:15:54.412Z,30.33
2022-12-16T17:18:46.589Z,33.40
2022-12-16T17:21:33.253Z,33.83
2022-12-16T17:24:19.150Z,30.80
2022-12-16T17:27:09.118Z,73.70
2022-12-16T17:29:55.906Z,54.15
2022-12-16T17:32:49.087Z,130.43
2022-12-16T17:35:36.175Z,65.95
2022-12-16T17:38:22.101Z,50.53
2022-12-16T17:41:11.082Z,80.18
2022-12-16T17:43:58.765Z,27.80
2022-12-16T17:46:44.229Z,61.05
2022-12-16T17:49:30.291Z,50.20
2022-12-16T17:52:17.150Z,46.78
2022-12-16T17:55:02.721Z,38.45
2022-12-16T17:57:49.013Z,29.63
2022-12-16T18:00:35.420Z,31.92
2022-12-16T18:03:22.466Z,37.22
2022-12-16T18:06:15.542Z,40.70
2022-12-16T18:09:01.156Z,32.75
2022-12-16T18:11:46.903Z,28.55
2022-12-16T18:14:32.485Z,29.92
2022-12-16T18:17:18.216Z,39.72
2022-12-16T18:20:04.095Z,47.05
2022-12-16T18:22:50.102Z,44.45
2022-12-16T18:25:35.949Z,45.78
2022-12-16T18:28:22.330Z,27.25
2022-12-16T18:31:07.964Z,22.67
2022-12-16T18:33:53.653Z,35.35
2022-12-16T18:36:39.487Z,24.98
2022-12-16T18:39:25.013Z,31.98
2022-12-16T18:42:10.910Z,27.50
2022-12-16T18:45:01.019Z,17.25
2022-12-16T18:47:49.402Z,19.95
2022-12-16T18:50:37.974Z,19.30
2022-12-16T18:53:27.767Z,22.35
2022-12-16T18:59:07.041Z,21.63
2022-12-16T19:01:57.422Z,20.10
2022-12-16T19:04:43.617Z,20.35
2022-12-16T19:07:33.378Z,18.55
2022-12-16T19:10:19.623Z,18.92
2022-12-16T19:13:05.048Z,19.50
2022-12-16T19:15:51.262Z,18.10
2022-12-16T19:18:37.427Z,17.77
2022-12-16T19:21:23.433Z,18.20
2022-12-16T19:24:09.374Z,19.58
2022-12-16T19:26:56.558Z,20.52
2022-12-16T19:29:43.061Z,21.17
2022-12-16T19:32:28.971Z,22.80
2022-12-16T19:35:14.661Z,24.65
2022-12-16T19:38:00.692Z,24.10
2022-12-16T19:41:12.575Z,22.83
2022-12-16T19:44:03.626Z,21.40
2022-12-16T19:46:51.725Z,20.00
2022-12-16T19:49:43.786Z,19.58
2022-12-16T19:52:30.120Z,19.90
2022-12-16T19:58:20.892Z,25.30
2022-12-16T20:01:06.873Z,23.00
2022-12-16T20:03:55.251Z,22.55
2022-12-16T20:06:42.394Z,23.45
2022-12-16T20:09:28.103Z,23.33
2022-12-16T20:12:16.224Z,22.20
2022-12-16T20:15:01.468Z,22.77
2022-12-16T20:17:50.458Z,24.05
2022-12-16T20:20:38.004Z,21.02
2022-12-16T20:23:23.677Z,20.95
2022-12-16T20:26:17.423Z,18.55
2022-12-16T20:29:03.671Z,19.90
2022-12-16T20:31:52.521Z,19.40
2022-12-16T20:34:41.454Z,21.13
2022-12-16T20:37:27.122Z,21.77
2022-12-16T20:40:13.470Z,21.08
2022-12-16T20:42:59.036Z,21.30
2022-12-16T20:45:44.680Z,20.30
2022-12-16T20:48:35.138Z,21.60
2022-12-16T20:51:26.546Z,24.10
2022-12-16T20:54:13.196Z,22.55
2022-12-16T20:56:59.657Z,22.58
2022-12-16T20:59:45.305Z,24.45
2022-12-16T21:02:34.103Z,25.05
2022-12-16T21:05:21.276Z,23.17
2022-12-16T21:08:06.843Z,25.13
2022-12-16T21:10:52.451Z,25.45
2022-12-16T21:13:41.737Z,22.80
2022-12-16T21:16:30.329Z,26.73
2022-12-16T21:19:16.387Z,24.92
2022-12-16T21:22:02.063Z,23.40
2022-12-16T21:24:47.542Z,25.90
2022-12-16T21:27:33.193Z,28.95
2022-12-16T21:30:18.710Z,28.92
2022-12-16T21:33:04.822Z,28.48
2022-12-16T21:35:50.864Z,27.83
2022-12-16T21:38:37.948Z,26.85
2022-12-16T21:41:24.098Z,28.30
2022-12-16T21:44:10.648Z,28.55
2022-12-16T21:46:56.046Z,28.85
2022-12-16T21:49:42.298Z,27.73
2022-12-16T21:52:27.913Z,31.52
2022-12-16T21:55:14.372Z,30.20
2022-12-16T21:58:05.578Z,28.67
2022-12-16T22:00:58.860Z,30.55
2022-12-16T22:03:52.299Z,28.70
2022-12-16T22:06:38.437Z,28.17
2022-12-16T22:09:24.090Z,30.10
2022-12-16T22:12:10.632Z,30.45
2022-12-16T22:14:56.588Z,33.25
2022-12-16T22:18:02.343Z,33.92
2022-12-16T22:20:47.775Z,30.38
2022-12-16T22:23:34.225Z,30.40
2022-12-16T22:26:20.810Z,32.65
2022-12-16T22:29:06.463Z,34.75
2022-12-16T22:31:52.263Z,31.90
2022-12-16T22:34:38.048Z,60.05
2022-12-16T22:36:20.429Z,20.02
2022-12-16T22:37:23.819Z,33.55
2022-12-16T22:40:09.125Z,43.00
2022-12-16T22:42:56.300Z,35.67
2022-12-16T22:45:42.104Z,32.15
2022-12-16T22:48:31.440Z,32.40
2022-12-16T22:51:16.855Z,32.40
2022-12-16T22:54:06.910Z,31.35
2022-12-16T22:56:52.669Z,35.63
2022-12-16T23:02:28.307Z,30.70
2022-12-16T23:05:13.796Z,29.70
2022-12-16T23:07:59.445Z,32.30
2022-12-16T23:10:45.642Z,30.77
2022-12-16T23:13:32.219Z,32.40
2022-12-16T23:16:17.712Z,32.40
2022-12-16T23:19:03.563Z,31.00
2022-12-16T23:21:49.031Z,31.33
2022-12-16T23:24:34.661Z,31.08
2022-12-16T23:27:20.379Z,29.60
2022-12-16T23:30:06.006Z,30.85
2022-12-16T23:32:51.353Z,29.67
2022-12-16T23:35:39.148Z,28.88
2022-12-16T23:38:25.593Z,28.17
2022-12-16T23:41:15.564Z,29.08
2022-12-16T23:44:01.632Z,27.98
2022-12-16T23:46:47.899Z,26.85
2022-12-16T23:49:33.697Z,26.35
2022-12-16T23:52:19.547Z,26.83
2022-12-16T23:55:05.058Z,26.60
2022-12-16T23:57:50.624Z,26.67
